createdAt,value
2022-12-19T00:00:32.621Z,29.23
2022-12-19T00:03:01.021Z,27.38
2022-12-19T00:05:29.255Z,26.67
2022-12-19T00:07:57.502Z,27.63
2022-12-19T00:10:27.200Z,27.52
2022-12-19T00:12:55.375Z,28.30
2022-12-19T00:15:23.648Z,29.30
2022-12-19T00:17:53.321Z,29.27
2022-12-19T00:20:21.547Z,27.73
2022-12-19T00:22:50.975Z,25.20
2022-12-19T00:25:19.295Z,29.45
2022-12-19T00:27:48.842Z,29.35
2022-12-19T00:30:17.246Z,27.80
2022-12-19T00:32:45.970Z,28.30
2022-12-19T00:35:15.794Z,37.03
2022-12-19T00:37:49.398Z,35.00
2022-12-19T00:40:18.607Z,30.55
2022-12-19T00:42:53.167Z,27.70
2022-12-19T00:45:22.050Z,29.80
2022-12-19T00:47:50.327Z,31.90
2022-12-19T00:50:20.008Z,30.95
2022-12-19T00:52:48.249Z,30.60
2022-12-19T00:55:19.040Z,27.40
2022-12-19T00:57:48.266Z,25.83
2022-12-19T01:00:18.709Z,27.40
2022-12-19T01:02:47.152Z,27.30
2022-12-19T01:05:15.497Z,31.52
2022-12-19T01:07:45.154Z,29.42
2022-12-19T01:10:13.348Z,30.15
2022-12-19T01:12:46.396Z,31.23
2022-12-19T01:15:17.353Z,31.10
2022-12-19T01:17:46.058Z,29.58
2022-12-19T01:20:19.111Z,29.25
2022-12-19T01:22:54.383Z,28.67
2022-12-19T01:25:22.583Z,27.35
2022-12-19T01:27:50.792Z,29.70
2022-12-19T01:30:19.058Z,31.40
2022-12-19T01:32:47.800Z,27.45
2022-12-19T01:35:21.729Z,30.33
2022-12-19T01:37:51.551Z,25.95
2022-12-19T01:40:23.019Z,28.75
2022-12-19T01:42:51.454Z,25.10
2022-12-19T01:45:34.416Z,26.27
2022-12-19T01:48:18.770Z,25.85
2022-12-19T01:51:02.589Z,27.73
2022-12-19T01:53:48.756Z,28.05
2022-12-19T01:56:23.693Z,25.30
2022-12-19T01:59:05.587Z,25.23
2022-12-19T02:01:36.175Z,26.15
2022-12-19T02:04:09.813Z,25.20
2022-12-19T02:06:40.991Z,25.23
2022-12-19T02:09:09.826Z,27.10
2022-12-19T02:12:12.011Z,24.70
2022-12-19T02:14:41.133Z,27.90
2022-12-19T02:17:23.462Z,26.00
2022-12-19T02:20:33.279Z,25.17
2022-12-19T02:23:37.052Z,24.83
2022-12-19T02:26:47.475Z,25.25
2022-12-19T02:29:51.411Z,29.13
2022-12-19T02:32:32.983Z,25.73
2022-12-19T02:35:16.170Z,28.17
2022-12-19T02:37:52.825Z,29.55
2022-12-19T02:40:30.294Z,26.27
2022-12-19T02:43:02.894Z,23.83
2022-12-19T02:45:37.601Z,27.60
2022-12-19T02:48:09.759Z,26.90
2022-12-19T02:50:44.454Z,28.67
2022-12-19T02:53:17.300Z,26.13
2022-12-19T02:56:10.641Z,28.88
2022-12-19T02:59:09.774Z,25.30
2022-12-19T03:01:50.480Z,24.48
2022-12-19T03:04:38.647Z,25.85
2022-12-19T03:07:22.861Z,27.00
2022-12-19T03:10:02.399Z,24.88
2022-12-19T03:12:41.669Z,28.95
2022-12-19T03:15:10.793Z,27.73
2022-12-19T03:17:39.846Z,25.23
2022-12-19T03:20:25.268Z,25.00
2022-12-19T03:22:53.460Z,26.60
2022-12-19T03:25:24.192Z,25.27
2022-12-19T03:27:56.203Z,28.63
2022-12-19T03:30:24.744Z,24.17
2022-12-19T03:32:54.737Z,27.95
2022-12-19T03:35:30.056Z,22.77
2022-12-19T03:38:03.558Z,26.25
2022-12-19T03:40:36.735Z,25.92
2022-12-19T03:43:10.744Z,27.10
2022-12-19T03:45:54.411Z,28.40
2022-12-19T03:48:30.819Z,28.08
2022-12-19T03:51:13.270Z,28.53
2022-12-19T03:53:54.923Z,27.42
2022-12-19T03:56:35.915Z,28.30
2022-12-19T03:59:10.849Z,27.52
2022-12-19T04:01:41.153Z,30.85
2022-12-19T04:04:14.591Z,26.67
2022-12-19T04:06:46.579Z,27.55
2022-12-19T04:09:22.187Z,24.45
2022-12-19T04:11:56.442Z,23.50
2022-12-19T04:14:30.205Z,25.38
2022-12-19T04:17:07.862Z,29.58
2022-12-19T04:19:44.889Z,30.30
2022-12-19T04:22:22.116Z,30.27
2022-12-19T04:24:54.774Z,36.45
2022-12-19T04:27:24.346Z,27.77
2022-12-19T04:29:58.512Z,29.17
2022-12-19T04:32:28.550Z,28.98
2022-12-19T04:34:56.736Z,23.27
2022-12-19T04:37:26.303Z,25.00
2022-12-19T04:39:54.860Z,26.20
2022-12-19T04:42:23.067Z,23.95
2022-12-19T04:44:51.345Z,25.98
2022-12-19T04:47:19.491Z,24.35
2022-12-19T04:49:47.677Z,26.65
2022-12-19T04:52:15.831Z,24.77
2022-12-19T04:54:45.521Z,30.80
2022-12-19T04:57:13.776Z,27.55
2022-12-19T04:59:42.048Z,22.48
2022-12-19T05:02:10.313Z,21.73
2022-12-19T05:04:38.455Z,24.58
2022-12-19T05:07:06.519Z,22.48
2022-12-19T05:09:34.977Z,32.13
2022-12-19T05:12:04.780Z,27.08
2022-12-19T05:14:32.820Z,28.80
2022-12-19T05:17:01.636Z,26.95
2022-12-19T05:19:30.506Z,24.27
2022-12-19T05:21:59.011Z,23.15
2022-12-19T05:24:27.109Z,23.88
2022-12-19T05:26:55.236Z,23.30
2022-12-19T05:29:24.930Z,27.65
2022-12-19T05:31:53.905Z,24.45
2022-12-19T05:34:22.057Z,28.38
2022-12-19T05:36:50.181Z,27.35
2022-12-19T05:39:18.440Z,24.98
2022-12-19T05:41:49.212Z,26.13
2022-12-19T05:44:17.879Z,24.05
2022-12-19T05:46:47.494Z,37.05
2022-12-19T05:49:17.382Z,42.00
2022-12-19T05:51:45.607Z,27.75
2022-12-19T05:54:13.788Z,23.73
2022-12-19T05:56:42.867Z,26.17
2022-12-19T05:59:11.308Z,23.73
2022-12-19T06:01:39.556Z,24.75
2022-12-19T06:04:09.027Z,24.02
2022-12-19T06:06:37.511Z,23.00
2022-12-19T06:09:05.755Z,21.30
2022-12-19T06:11:33.866Z,23.98
2022-12-19T06:14:01.929Z,24.75
2022-12-19T06:16:32.584Z,25.80
2022-12-19T06:19:01.413Z,24.92
2022-12-19T06:21:30.944Z,23.73
2022-12-19T06:23:59.122Z,23.23
2022-12-19T06:26:27.356Z,25.00
2022-12-19T06:28:56.843Z,21.92
2022-12-19T06:31:26.034Z,22.40
2022-12-19T06:33:56.139Z,22.17
2022-12-19T06:36:27.084Z,22.25
2022-12-19T06:38:58.970Z,23.35
2022-12-19T06:41:45.500Z,23.23
2022-12-19T06:44:16.413Z,23.60
2022-12-19T06:46:45.498Z,23.92
2022-12-19T06:49:13.739Z,26.92
2022-12-19T06:51:42.490Z,24.23
2022-12-19T06:54:13.540Z,26.95
2022-12-19T06:56:43.936Z,21.30
2022-12-19T06:59:16.659Z,20.90
2022-12-19T07:02:00.625Z,22.88
2022-12-19T07:04:35.297Z,20.30
2022-12-19T07:07:03.830Z,23.27
2022-12-19T07:09:35.782Z,20.30
2022-12-19T07:12:08.832Z,20.23
2022-12-19T07:14:36.974Z,20.70
2022-12-19T07:17:06.681Z,21.50
2022-12-19T07:19:36.433Z,22.80
2022-12-19T07:22:06.233Z,23.25
2022-12-19T07:24:36.826Z,21.73
2022-12-19T07:27:09.504Z,20.52
2022-12-19T07:29:37.688Z,24.17
2022-12-19T07:32:05.998Z,22.67
2022-12-19T07:34:34.123Z,25.08
2022-12-19T07:37:02.313Z,22.88
2022-12-19T07:39:30.410Z,22.70
2022-12-19T07:41:59.954Z,21.35
2022-12-19T07:44:28.036Z,23.17
2022-12-19T07:46:56.254Z,23.58
2022-12-19T07:49:24.537Z,22.17
2022-12-19T07:51:52.684Z,20.80
2022-12-19T07:54:20.814Z,21.58
2022-12-19T07:56:49.097Z,21.45
2022-12-19T07:59:18.642Z,25.13
2022-12-19T08:01:46.947Z,30.35
2022-12-19T08:04:15.127Z,23.67
2022-12-19T08:06:43.164Z,21.25
2022-12-19T08:09:11.261Z,21.15
2022-12-19T08:11:40.609Z,20.25
2022-12-19T08:14:08.807Z,21.23
2022-12-19T08:17:10.897Z,20.55
2022-12-19T08:19:27.785Z,19.52
2022-12-19T08:21:56.143Z,83.30
2022-12-19T08:24:24.284Z,69.63
2022-12-19T08:26:52.484Z,36.45
2022-12-19T08:29:20.984Z,22.15
2022-12-19T08:31:51.026Z,19.85
2022-12-19T08:34:19.347Z,29.52
2022-12-19T08:36:47.458Z,22.13
2022-12-19T08:39:15.811Z,19.67
2022-12-19T08:41:43.892Z,17.95
2022-12-19T08:44:13.333Z,17.88
2022-12-19T08:46:46.549Z,19.08
2022-12-19T08:49:19.941Z,17.80
2022-12-19T08:51:48.691Z,24.13
2022-12-19T08:54:16.895Z,17.85
2022-12-19T08:56:46.805Z,20.95
2022-12-19T08:59:19.285Z,19.75
2022-12-19T09:01:59.123Z,17.90
2022-12-19T09:06:02.072Z,23.63
2022-12-19T09:07:17.724Z,18.10
2022-12-19T09:09:45.886Z,19.15
2022-12-19T09:12:16.022Z,66.07
2022-12-19T09:14:45.131Z,70.05
2022-12-19T09:17:13.510Z,70.18
2022-12-19T09:19:47.524Z,50.83
2022-12-19T09:22:17.395Z,29.70
2022-12-19T09:24:45.566Z,24.05
2022-12-19T09:27:14.660Z,22.88
2022-12-19T09:29:43.500Z,21.17
2022-12-19T09:32:12.351Z,20.02
2022-12-19T09:34:41.979Z,17.15
2022-12-19T09:37:16.939Z,17.77
2022-12-19T09:39:46.840Z,18.58
2022-12-19T09:42:41.080Z,18.70
2022-12-19T09:45:38.707Z,19.33
2022-12-19T09:48:22.444Z,18.88
2022-12-19T09:51:10.210Z,18.42
2022-12-19T09:53:56.814Z,16.55
2022-12-19T09:56:33.926Z,15.45
2022-12-19T09:59:15.389Z,15.07
2022-12-19T10:01:58.024Z,17.60
2022-12-19T10:04:30.883Z,16.48
2022-12-19T10:07:21.158Z,15.65
2022-12-19T10:12:46.088Z,14.73
2022-12-19T10:13:12.934Z,15.45
2022-12-19T10:15:59.843Z,13.30
2022-12-19T10:18:49.743Z,13.00
2022-12-19T10:21:59.516Z,15.70
2022-12-19T10:25:08.213Z,14.15
2022-12-19T10:27:57.397Z,16.45
2022-12-19T10:30:32.290Z,15.00
2022-12-19T10:33:20.663Z,14.77
2022-12-19T10:36:02.061Z,13.13
2022-12-19T10:38:46.209Z,11.90
2022-12-19T10:41:26.141Z,14.30
2022-12-19T10:44:05.917Z,13.00
2022-12-19T10:46:41.309Z,13.55
2022-12-19T10:49:17.058Z,12.57
2022-12-19T10:51:58.966Z,11.90
2022-12-19T10:54:38.533Z,15.05
2022-12-19T10:57:26.459Z,15.35
2022-12-19T11:00:01.099Z,14.88
2022-12-19T11:02:41.474Z,20.17
2022-12-19T11:05:26.567Z,19.50
2022-12-19T11:08:05.019Z,16.13
2022-12-19T11:12:32.577Z,16.33
2022-12-19T11:19:39.003Z,12.88
2022-12-19T11:21:35.479Z,12.15
2022-12-19T11:29:19.607Z,11.65
2022-12-19T11:29:31.091Z,11.25
2022-12-19T11:29:38.253Z,12.18
2022-12-19T11:30:47.821Z,11.18
2022-12-19T11:34:17.346Z,10.85
2022-12-19T11:36:53.488Z,8.63
2022-12-19T11:39:33.240Z,10.35
2022-12-19T11:42:11.224Z,9.15
2022-12-19T11:44:49.185Z,10.02
2022-12-19T11:47:34.934Z,9.63
2022-12-19T11:50:15.562Z,9.85
2022-12-19T11:53:03.849Z,10.15
2022-12-19T11:55:45.553Z,9.13
2022-12-19T11:58:14.553Z,10.50
2022-12-19T12:00:54.523Z,9.10
2022-12-19T12:04:08.868Z,10.25
2022-12-19T12:06:47.479Z,9.95
2022-12-19T12:11:21.522Z,7.10
2022-12-19T12:19:18.845Z,7.20
2022-12-19T12:24:13.262Z,9.57
2022-12-19T12:31:06.541Z,7.45
2022-12-19T12:31:30.701Z,7.85
2022-12-19T12:31:48.509Z,8.40
2022-12-19T12:31:51.389Z,8.90
2022-12-19T12:35:47.069Z,8.77
2022-12-19T12:40:30.514Z,7.30
2022-12-19T12:43:15.026Z,4.40
2022-12-19T12:45:46.089Z,4.63
2022-12-19T12:48:26.641Z,5.93
2022-12-19T12:51:01.076Z,4.72
2022-12-19T12:53:35.176Z,3.92
2022-12-19T12:56:07.759Z,4.07
2022-12-19T12:59:06.341Z,5.05
2022-12-19T13:01:38.915Z,3.80
2022-12-19T13:04:25.495Z,3.53
2022-12-19T13:07:29.330Z,5.45
2022-12-19T13:10:22.249Z,10.05
2022-12-19T13:13:07.963Z,4.75
2022-12-19T13:15:43.556Z,7.68
2022-12-19T13:18:38.445Z,10.45
2022-12-19T13:21:10.767Z,6.93
2022-12-19T13:23:50.005Z,10.02
2022-12-19T13:26:52.294Z,8.63
2022-12-19T13:30:15.336Z,6.22
2022-12-19T13:33:11.069Z,5.47
2022-12-19T13:39:46.473Z,7.57
2022-12-19T13:40:01.458Z,5.05
2022-12-19T13:41:59.813Z,5.95
2022-12-19T13:44:29.189Z,7.70
2022-12-19T13:46:57.809Z,6.88
2022-12-19T13:49:34.296Z,5.68
2022-12-19T13:54:45.675Z,6.88
2022-12-19T13:57:24.298Z,4.80
2022-12-19T14:00:00.258Z,7.22
2022-12-19T14:02:44.291Z,6.93
2022-12-19T14:05:34.186Z,6.70
2022-12-19T14:08:22.095Z,8.23
2022-12-19T14:11:43.880Z,8.48
2022-12-19T14:14:16.452Z,7.07
2022-12-19T14:16:49.097Z,6.78
2022-12-19T14:19:25.106Z,8.20
2022-12-19T14:22:04.313Z,8.20
2022-12-19T14:24:36.348Z,6.38
2022-12-19T14:28:26.077Z,6.28
2022-12-19T14:30:32.215Z,7.82
2022-12-19T14:33:46.160Z,6.57
2022-12-19T14:36:09.840Z,7.95
2022-12-19T14:39:27.738Z,6.35
2022-12-19T14:42:02.427Z,6.15
2022-12-19T14:52:25.122Z,4.75
2022-12-19T14:52:25.253Z,5.22
2022-12-19T14:54:14.803Z,4.53
2022-12-19T14:54:52.536Z,7.07
2022-12-19T14:56:56.046Z,5.40
2022-12-19T14:59:07.070Z,3.72
2022-12-19T15:01:37.143Z,4.07
2022-12-19T15:04:51.620Z,5.10
2022-12-19T15:07:12.694Z,5.10
2022-12-19T15:11:04.091Z,5.32
2022-12-19T15:14:54.393Z,5.40
2022-12-19T15:16:08.483Z,4.03
2022-12-19T15:18:43.157Z,9.20
2022-12-19T15:21:15.357Z,7.25
2022-12-19T15:23:46.010Z,11.57
2022-12-19T15:26:17.880Z,12.57
2022-12-19T15:28:50.725Z,12.90
2022-12-19T15:31:32.313Z,10.98
2022-12-19T15:36:54.494Z,7.35
2022-12-19T15:39:26.850Z,9.15
2022-12-19T15:41:57.442Z,8.32
2022-12-19T15:44:32.326Z,9.27
2022-12-19T15:47:01.234Z,7.10
2022-12-19T15:49:29.600Z,5.97
2022-12-19T15:51:59.670Z,8.70
2022-12-19T15:57:29.155Z,7.82
2022-12-19T16:00:01.442Z,6.63
2022-12-19T16:03:04.552Z,8.75
2022-12-19T16:05:23.731Z,8.32
2022-12-19T16:07:53.984Z,7.10
2022-12-19T16:10:22.348Z,9.50
2022-12-19T16:12:55.490Z,7.35
2022-12-19T16:15:32.076Z,7.03
2022-12-19T16:18:03.400Z,7.22
2022-12-19T16:20:36.067Z,5.90
2022-12-19T16:23:12.262Z,6.97
2022-12-19T16:25:44.337Z,5.72
2022-12-19T16:28:19.380Z,6.65
2022-12-19T16:30:47.951Z,6.63
2022-12-19T16:33:21.946Z,5.78
2022-12-19T16:36:07.639Z,7.30
2022-12-19T16:38:39.491Z,6.85
2022-12-19T16:41:17.142Z,8.05
2022-12-19T16:43:47.263Z,7.60
2022-12-19T16:46:20.834Z,5.53
2022-12-19T16:48:49.475Z,8.02
2022-12-19T16:51:21.627Z,7.07
2022-12-19T16:53:53.574Z,6.38
2022-12-19T16:56:31.425Z,7.30
2022-12-19T16:59:02.997Z,7.03
2022-12-19T17:01:31.830Z,7.53
2022-12-19T17:04:00.230Z,7.65
2022-12-19T17:06:28.858Z,9.35
2022-12-19T17:08:58.481Z,7.13
2022-12-19T17:11:29.453Z,7.13
2022-12-19T17:14:05.287Z,7.28
2022-12-19T17:16:33.718Z,7.50
2022-12-19T17:19:04.315Z,18.08
2022-12-19T17:21:34.327Z,12.75
2022-12-19T17:24:14.095Z,11.25
2022-12-19T17:26:46.204Z,13.02
2022-12-19T17:29:15.438Z,21.75
2022-12-19T17:31:44.002Z,14.68
2022-12-19T17:34:21.528Z,13.13
2022-12-19T17:36:49.785Z,13.30
2022-12-19T17:39:23.408Z,10.93
2022-12-19T17:41:52.967Z,13.93
2022-12-19T17:44:22.581Z,19.08
2022-12-19T17:46:51.313Z,63.00
2022-12-19T17:49:26.772Z,14.25
2022-12-19T17:51:56.942Z,28.23
2022-12-19T17:54:36.559Z,62.88
2022-12-19T17:57:06.844Z,39.20
2022-12-19T17:59:35.599Z,34.30
2022-12-19T18:02:04.104Z,24.48
2022-12-19T18:04:32.774Z,23.90
2022-12-19T18:07:01.381Z,22.45
2022-12-19T18:09:31.937Z,18.58
2022-12-19T18:12:00.959Z,14.82
2022-12-19T18:14:30.756Z,15.30
2022-12-19T18:17:00.768Z,12.63
2022-12-19T18:19:33.647Z,11.48
2022-12-19T18:22:02.054Z,12.40
2022-12-19T18:24:31.863Z,12.00
2022-12-19T18:26:59.991Z,12.55
2022-12-19T18:29:28.225Z,12.85
2022-12-19T18:31:56.864Z,13.30
2022-12-19T18:34:29.578Z,12.85
2022-12-19T18:36:58.065Z,13.05
2022-12-19T18:39:32.010Z,14.10
2022-12-19T18:42:01.654Z,13.52
2022-12-19T18:44:29.908Z,13.57
2022-12-19T18:46:58.936Z,11.05
2022-12-19T18:49:29.457Z,10.13
2022-12-19T18:51:57.832Z,9.27
2022-12-19T18:54:31.595Z,10.25
2022-12-19T18:57:01.259Z,8.60
2022-12-19T18:59:29.489Z,8.65
2022-12-19T19:01:57.770Z,11.00
2022-12-19T19:04:27.612Z,6.78
2022-12-19T19:06:55.879Z,10.02
2022-12-19T19:09:24.115Z,8.65
2022-12-19T19:11:52.368Z,7.28
2022-12-19T19:14:22.179Z,12.30
2022-12-19T19:16:52.335Z,7.07
2022-12-19T19:19:21.423Z,10.32
2022-12-19T19:21:52.146Z,6.10
2022-12-19T19:24:26.728Z,6.07
2022-12-19T19:26:54.931Z,5.10
2022-12-19T19:29:24.586Z,17.65
2022-12-19T19:31:54.033Z,68.68
2022-12-19T19:34:27.946Z,10.90
2022-12-19T19:37:00.916Z,6.80
2022-12-19T19:39:32.617Z,4.70
2022-12-19T19:42:03.551Z,4.22
2022-12-19T19:44:33.146Z,3.97
2022-12-19T19:47:02.046Z,4.03
2022-12-19T19:49:30.198Z,4.40
2022-12-19T19:52:02.866Z,3.55
2022-12-19T19:54:31.820Z,4.05
2022-12-19T19:56:59.925Z,3.95
2022-12-19T19:59:32.493Z,3.70
2022-12-19T20:02:01.124Z,3.50
2022-12-19T20:04:29.536Z,3.80
2022-12-19T20:06:57.818Z,3.10
2022-12-19T20:09:26.045Z,3.08
2022-12-19T20:11:54.352Z,3.00
2022-12-19T20:14:23.154Z,3.00
2022-12-19T20:16:52.795Z,3.05
2022-12-19T20:19:21.074Z,2.80
2022-12-19T20:21:49.321Z,3.75
2022-12-19T20:24:17.572Z,3.05
2022-12-19T20:26:45.920Z,2.63
2022-12-19T20:29:14.171Z,3.22
2022-12-19T20:31:44.768Z,2.90
2022-12-19T20:34:14.437Z,3.00
2022-12-19T20:36:43.324Z,3.38
2022-12-19T20:39:11.580Z,3.45
2022-12-19T20:41:39.890Z,3.20
2022-12-19T20:44:11.151Z,2.95
2022-12-19T20:46:45.185Z,3.20
2022-12-19T20:49:15.430Z,3.45
2022-12-19T20:51:44.381Z,3.78
2022-12-19T20:54:13.361Z,3.53
2022-12-19T20:56:42.277Z,3.72
2022-12-19T20:59:11.578Z,3.85
2022-12-19T21:01:40.243Z,3.33
2022-12-19T21:04:08.819Z,4.28
2022-12-19T21:06:39.561Z,10.32
2022-12-19T21:09:07.991Z,6.50
2022-12-19T21:11:36.602Z,3.88
2022-12-19T21:14:05.902Z,4.80
2022-12-19T21:16:34.365Z,4.05
2022-12-19T21:19:02.805Z,3.80
2022-12-19T21:21:31.398Z,4.20
2022-12-19T21:24:02.866Z,3.38
2022-12-19T21:26:31.126Z,3.53
2022-12-19T21:29:16.953Z,3.47
2022-12-19T21:31:45.792Z,3.50
2022-12-19T21:34:14.507Z,3.47
2022-12-19T21:36:43.079Z,4.18
2022-12-19T21:39:13.252Z,3.65
2022-12-19T21:41:41.685Z,3.72
2022-12-19T21:44:11.752Z,3.47
2022-12-19T21:46:40.361Z,3.20
2022-12-19T21:49:09.788Z,4.22
2022-12-19T21:51:38.671Z,3.75
2022-12-19T21:54:07.604Z,4.53
2022-12-19T21:56:39.596Z,3.42
2022-12-19T21:59:15.026Z,4.03
2022-12-19T22:01:45.284Z,3.55
2022-12-19T22:04:20.053Z,4.43
2022-12-19T22:06:51.160Z,7.10
2022-12-19T22:09:25.645Z,8.38
2022-12-19T22:11:55.361Z,5.75
2022-12-19T22:17:36.478Z,5.10
2022-12-19T22:20:12.118Z,3.83
2022-12-19T22:22:44.933Z,5.25
2022-12-19T22:25:15.981Z,3.92
2022-12-19T22:27:49.502Z,5.43
2022-12-19T22:30:20.887Z,5.10
2022-12-19T22:32:50.518Z,4.10
2022-12-19T22:35:21.189Z,3.25
2022-12-19T22:37:51.095Z,4.90
2022-12-19T22:40:19.961Z,3.70
2022-12-19T22:42:49.701Z,3.25
2022-12-19T22:45:20.577Z,3.47
2022-12-19T22:47:48.974Z,3.65
2022-12-19T22:50:17.427Z,3.75
2022-12-19T22:52:45.756Z,3.92
2022-12-19T22:55:13.983Z,3.25
2022-12-19T22:58:08.902Z,3.17
2022-12-19T23:00:37.732Z,3.55
2022-12-19T23:03:06.165Z,4.70
2022-12-19T23:05:37.379Z,3.15
2022-12-19T23:08:06.308Z,3.55
2022-12-19T23:10:34.639Z,3.58
2022-12-19T23:13:04.390Z,2.97
2022-12-19T23:15:35.817Z,3.92
2022-12-19T23:18:04.108Z,3.03
2022-12-19T23:20:32.577Z,2.70
2022-12-19T23:23:01.094Z,2.83
2022-12-19T23:25:29.714Z,2.63
2022-12-19T23:28:17.568Z,3.10
2022-12-19T23:30:49.569Z,2.97
2022-12-19T23:33:18.238Z,3.05
2022-12-19T23:35:46.588Z,2.63
2022-12-19T23:38:14.769Z,2.45
2022-12-19T23:40:42.919Z,2.53
2022-12-19T23:43:11.106Z,1.90
2022-12-19T23:45:39.929Z,2.67
2022-12-19T23:48:09.522Z,2.50
2022-12-19T23:50:37.757Z,2.13
2022-12-19T23:53:05.910Z,2.35
2022-12-19T23:55:34.051Z,2.97
2022-12-19T23:58:05.408Z,2.85
